Time;durP1;ratioP1;P1;durP2;ratioP2;P2;SDS_P1;SDS_P2;PMS_P1;PMS_P2;Temp;Humidity;BMP_temperature;BMP_pressure;BME280_temperature;BME280_humidity;BME280_pressure;Samples;Min_cycle;Max_cycle;Signal;HPM_P1;HPM_P2
2024/02/06 00:01:18;;;;;;;15.63;8.02;;;;;;;8.93;63.13;97614.44;4973946;28;20553;-78
2024/02/06 00:03:44;;;;;;;14.75;8.50;;;;;;;8.94;63.14;97610.81;4978479;28;20054;-78
2024/02/06 00:06:09;;;;;;;15.93;7.68;;;;;;;8.71;63.77;97614.94;4980511;28;20348;-78
2024/02/06 00:08:36;;;;;;;16.85;8.25;;;;;;;8.92;62.87;97615.44;4980814;28;20061;-78
2024/02/06 00:11:02;;;;;;;16.98;8.02;;;;;;;9.05;62.86;97606.66;4971996;28;20038;-78
2024/02/06 00:13:27;;;;;;;15.48;7.60;;;;;;;8.76;64.37;97603.88;4969617;28;20726;-78
2024/02/06 00:15:54;;;;;;;16.55;7.72;;;;;;;8.85;63.34;97599.94;4967479;28;20562;-78
2024/02/06 00:18:20;;;;;;;18.70;7.60;;;;;;;8.87;63.96;97602.34;4979193;28;20176;-78
2024/02/06 00:20:45;;;;;;;16.73;8.10;;;;;;;8.92;63.60;97600.63;4946932;28;20168;-79
2024/02/06 00:23:10;;;;;;;16.05;7.32;;;;;;;8.89;62.89;97592.50;4939440;28;20043;-78
2024/02/06 00:25:36;;;;;;;17.92;7.72;;;;;;;8.95;63.52;97604.63;4969537;28;20041;-78
2024/02/06 00:28:01;;;;;;;17.52;8.40;;;;;;;8.80;63.74;97598.00;4979385;28;20088;-78
2024/02/06 00:30:27;;;;;;;15.68;8.00;;;;;;;8.91;63.26;97604.28;4976110;28;20037;-78
2024/02/06 00:32:52;;;;;;;15.38;7.82;;;;;;;8.93;63.15;97606.66;4965714;28;20043;-78
2024/02/06 00:35:18;;;;;;;15.80;7.45;;;;;;;8.96;63.18;97606.19;4947012;28;20040;-78
2024/02/06 00:37:44;;;;;;;16.73;8.10;;;;;;;9.04;64.04;97607.69;4947850;28;20108;-77
2024/02/06 00:40:10;;;;;;;16.35;7.93;;;;;;;8.73;64.03;97610.31;4973383;28;20109;-79
2024/02/06 00:42:35;;;;;;;14.43;7.20;;;;;;;8.83;63.73;97614.19;4971028;28;20121;-77
2024/02/06 00:45:02;;;;;;;17.67;8.80;;;;;;;8.90;63.13;97607.09;4969778;28;20027;-78
2024/02/06 00:47:27;;;;;;;17.45;8.43;;;;;;;8.91;63.67;97608.66;4979379;28;20031;-78
2024/02/06 00:49:52;;;;;;;19.45;8.77;;;;;;;8.63;64.64;97605.63;4949750;28;20490;-78
2024/02/06 00:52:18;;;;;;;17.00;8.15;;;;;;;8.83;63.65;97604.59;4943843;28;20022;-79
2024/02/06 00:54:43;;;;;;;14.82;7.53;;;;;;;8.84;63.24;97616.53;4947317;28;20182;-79
2024/02/06 00:57:08;;;;;;;17.63;8.38;;;;;;;8.70;64.53;97599.56;4948208;28;20061;-78
2024/02/06 00:59:34;;;;;;;17.63;7.55;;;;;;;8.72;64.13;97600.94;4983439;28;20243;-83
2024/02/06 01:02:00;;;;;;;17.67;8.60;;;;;;;8.75;64.90;97599.69;4937696;28;20254;-79
2024/02/06 01:04:26;;;;;;;19.70;8.00;;;;;;;8.86;63.55;97585.97;4954552;28;20312;-78
2024/02/06 01:06:52;;;;;;;16.30;8.07;;;;;;;8.54;65.40;97593.22;4950850;28;20253;-79
2024/02/06 01:09:18;;;;;;;17.45;7.80;;;;;;;8.69;65.10;97588.41;5000831;28;20023;-78
2024/02/06 01:11:44;;;;;;;19.27;7.95;;;;;;;8.49;65.72;97603.47;4941190;28;20031;-78
2024/02/06 01:14:09;;;;;;;20.77;8.20;;;;;;;8.65;64.68;97586.47;4965931;28;20029;-78
2024/02/06 01:16:35;;;;;;;19.25;8.38;;;;;;;8.66;64.12;97591.44;4939957;28;20119;-78
2024/02/06 01:19:00;;;;;;;17.20;8.10;;;;;;;8.29;66.18;97575.91;4976038;28;20475;-77
2024/02/06 01:21:25;;;;;;;15.73;7.72;;;;;;;8.56;65.16;97578.19;4943225;28;20034;-78
2024/02/06 01:23:51;;;;;;;22.75;7.68;;;;;;;8.25;66.37;97579.97;4964115;28;20482;-78
2024/02/06 01:26:16;;;;;;;15.68;7.72;;;;;;;8.38;66.09;97572.03;4961568;28;20045;-76
2024/02/06 01:28:42;;;;;;;17.00;7.82;;;;;;;8.75;65.57;97586.72;4957177;28;20367;-79
2024/02/06 01:31:07;;;;;;;16.88;8.10;;;;;;;8.54;65.17;97573.22;4976194;28;20027;-77
2024/02/06 01:33:32;;;;;;;16.83;8.63;;;;;;;8.67;65.01;97572.28;4950507;28;20386;-78
2024/02/06 01:35:58;;;;;;;17.08;8.27;;;;;;;8.68;65.61;97576.44;4952541;28;20039;-78
2024/02/06 01:38:23;;;;;;;20.85;8.43;;;;;;;8.74;64.71;97577.34;4985278;28;20050;-78
2024/02/06 01:40:49;;;;;;;16.05;8.68;;;;;;;8.79;64.14;97572.28;4953097;28;20039;-78
2024/02/06 01:43:14;;;;;;;17.98;7.72;;;;;;;8.88;64.21;97570.16;4973994;28;20129;-77
2024/02/06 01:45:40;;;;;;;12.70;6.88;;;;;;;8.88;64.03;97581.34;5030244;28;20072;-77
2024/02/06 01:48:09;;;;;;;17.33;7.55;;;;;;;9.08;63.81;97577.63;4965068;28;20405;-78
2024/02/06 01:50:35;;;;;;;16.55;7.72;;;;;;;8.74;64.01;97574.75;4975200;28;20061;-77
2024/02/06 01:53:01;;;;;;;15.90;6.97;;;;;;;8.66;64.62;97594.03;4962365;28;20038;-77
2024/02/06 01:55:26;;;;;;;18.55;7.40;;;;;;;8.60;65.08;97577.56;4982246;28;20031;-78
2024/02/06 01:57:52;;;;;;;19.45;9.57;;;;;;;8.76;65.17;97585.72;4961899;28;20074;-78
2024/02/06 02:00:18;;;;;;;17.90;8.65;;;;;;;8.70;64.60;97592.56;4987710;28;20521;-77
2024/02/06 02:02:43;;;;;;;13.60;6.85;;;;;;;8.53;65.97;97571.63;4960259;28;20030;-78
2024/02/06 02:05:09;;;;;;;19.98;8.00;;;;;;;8.66;65.54;97570.66;4990532;28;20138;-77
2024/02/06 02:07:35;;;;;;;19.02;8.88;;;;;;;8.52;65.73;97564.09;4971600;28;20037;-77
2024/02/06 02:10:02;;;;;;;15.38;6.90;;;;;;;8.75;65.67;97573.75;4973864;28;20485;-83
2024/02/06 02:12:27;;;;;;;19.55;9.35;;;;;;;8.68;65.57;97570.44;4950843;28;20030;-83
2024/02/06 02:14:52;;;;;;;16.20;8.35;;;;;;;8.71;65.17;97567.41;4959915;28;20031;-84
2024/02/06 02:17:18;;;;;;;18.33;8.45;;;;;;;8.52;65.77;97561.50;4957191;28;20084;-83
2024/02/06 02:19:43;;;;;;;15.13;8.23;;;;;;;8.37;66.73;97572.25;4952819;28;20436;-82
2024/02/06 02:22:08;;;;;;;15.63;7.90;;;;;;;8.47;66.75;97556.97;4965099;28;20402;-82
2024/02/06 02:24:34;;;;;;;18.60;7.90;;;;;;;8.49;65.96;97543.78;4984192;28;20037;-81
2024/02/06 02:26:59;;;;;;;12.90;7.18;;;;;;;8.54;66.75;97549.09;4965653;28;20080;-82
2024/02/06 02:29:26;;;;;;;16.60;7.45;;;;;;;8.25;67.50;97539.25;4965531;28;20034;-82
2024/02/06 02:31:51;;;;;;;15.45;7.53;;;;;;;8.48;66.24;97544.78;4959674;28;20034;-82
2024/02/06 02:34:17;;;;;;;17.25;8.05;;;;;;;8.49;66.14;97536.78;4946705;28;20033;-81
2024/02/06 02:36:42;;;;;;;18.20;8.23;;;;;;;8.41;66.97;97537.84;4952875;28;20035;-82
2024/02/06 02:39:09;;;;;;;17.50;8.02;;;;;;;8.53;66.35;97537.13;4976229;28;20042;-81
2024/02/06 02:41:37;;;;;;;16.15;7.53;;;;;;;8.56;66.22;97537.47;4937125;28;20038;-82
2024/02/06 02:44:03;;;;;;;16.88;7.55;;;;;;;8.84;65.94;97535.25;4948961;28;20509;-82
2024/02/06 02:46:28;;;;;;;15.20;8.18;;;;;;;8.78;64.86;97529.16;4973194;28;20058;-81
2024/02/06 02:48:54;;;;;;;14.23;7.60;;;;;;;8.78;65.14;97529.94;4962379;28;20043;-82
2024/02/06 02:51:19;;;;;;;16.10;7.72;;;;;;;8.62;65.65;97531.38;4970585;28;20626;-83
2024/02/06 02:53:45;;;;;;;17.40;7.90;;;;;;;8.80;64.89;97529.72;5022269;28;20034;-83
2024/02/06 02:56:10;;;;;;;16.95;8.13;;;;;;;8.76;65.80;97528.59;4947553;28;20038;-81
2024/02/06 02:58:35;;;;;;;19.02;7.97;;;;;;;8.84;64.78;97522.28;4980041;28;20113;-85
2024/02/06 03:01:01;;;;;;;15.00;7.20;;;;;;;8.84;64.56;97517.88;4966621;28;20103;-83
2024/02/06 03:03:27;;;;;;;18.25;9.05;;;;;;;8.35;66.99;97507.59;4963416;28;20063;-82
2024/02/06 03:05:52;;;;;;;21.02;8.93;;;;;;;8.37;66.57;97508.16;4956566;28;20038;-80
2024/02/06 03:08:18;;;;;;;17.15;7.80;;;;;;;8.56;66.47;97502.94;4986958;28;20099;-81
2024/02/06 03:10:43;;;;;;;17.55;7.63;;;;;;;8.63;65.72;97508.81;4961189;28;20030;-81
2024/02/06 03:13:09;;;;;;;19.88;8.90;;;;;;;8.67;65.37;97496.19;4942415;28;20122;-81
2024/02/06 03:15:34;;;;;;;19.25;8.60;;;;;;;8.65;65.81;97506.78;4971571;28;20038;-82
2024/02/06 03:17:59;;;;;;;16.35;7.82;;;;;;;8.79;64.95;97515.97;4966857;28;20121;-82
2024/02/06 03:20:25;;;;;;;16.92;8.43;;;;;;;8.77;65.55;97502.41;4967255;28;20045;-80
2024/02/06 03:22:50;;;;;;;17.92;9.80;;;;;;;8.67;65.34;97497.00;4972200;28;20065;-78
2024/02/06 03:25:15;;;;;;;19.40;9.20;;;;;;;8.61;66.54;97492.69;4962453;28;20034;-78
2024/02/06 03:27:45;;;;;;;17.17;8.82;;;;;;;8.46;66.93;97495.69;4947786;28;20092;-77
2024/02/06 03:30:11;;;;;;;20.30;8.00;;;;;;;8.40;66.92;97497.34;4961214;28;20065;-77
2024/02/06 03:32:36;;;;;;;18.35;8.55;;;;;;;8.39;67.23;97498.34;4972809;28;20035;-78
2024/02/06 03:35:01;;;;;;;21.25;8.50;;;;;;;8.67;66.04;97497.00;4966831;28;20054;-78
2024/02/06 03:37:27;;;;;;;17.48;8.77;;;;;;;8.46;67.08;97492.31;4961452;28;20542;-78
2024/02/06 03:39:52;;;;;;;15.82;7.40;;;;;;;8.65;66.71;97493.03;4953311;28;20034;-78
2024/02/06 03:42:17;;;;;;;15.68;7.55;;;;;;;8.68;66.38;97503.75;4980259;28;20034;-77
2024/02/06 03:44:44;;;;;;;16.52;8.20;;;;;;;8.66;65.90;97500.59;4956596;28;20038;-77
2024/02/06 03:47:09;;;;;;;18.20;7.75;;;;;;;8.78;66.55;97501.38;4970038;28;20062;-78
2024/02/06 03:49:34;;;;;;;15.32;7.10;;;;;;;8.69;66.61;97496.75;4959300;28;20034;-78
2024/02/06 03:52:00;;;;;;;17.50;8.07;;;;;;;8.67;66.72;97507.38;4977669;28;20042;-78
2024/02/06 03:54:25;;;;;;;15.48;7.75;;;;;;;8.46;66.73;97506.06;4980371;28;20043;-76
2024/02/06 03:56:51;;;;;;;16.67;8.00;;;;;;;8.50;67.42;97499.44;4974170;28;20034;-78
2024/02/06 03:59:17;;;;;;;19.70;7.07;;;;;;;8.69;66.12;97505.34;4942645;28;20041;-78
2024/02/06 04:01:44;;;;;;;14.40;7.15;;;;;;;8.74;65.89;97502.88;4971823;28;20033;-77
2024/02/06 04:04:09;;;;;;;15.00;7.65;;;;;;;8.89;66.18;97501.63;4974514;28;20563;-78
2024/02/06 04:06:35;;;;;;;13.50;6.75;;;;;;;8.68;65.71;97493.34;4953369;28;20369;-78
2024/02/06 04:09:01;;;;;;;15.65;7.05;;;;;;;8.46;66.79;97493.09;4990126;28;20410;-78
2024/02/06 04:11:26;;;;;;;16.58;7.20;;;;;;;8.54;67.10;97497.19;4970848;28;20030;-77
2024/02/06 04:13:51;;;;;;;14.25;7.10;;;;;;;8.61;67.21;97500.47;4976053;28;20038;-77
2024/02/06 04:16:17;;;;;;;17.63;7.35;;;;;;;8.73;66.17;97495.28;4957599;28;20031;-78
2024/02/06 04:18:42;;;;;;;13.57;7.50;;;;;;;8.68;66.99;97511.53;4971438;28;20023;-77
2024/02/06 04:21:08;;;;;;;16.88;7.55;;;;;;;8.67;66.67;97494.41;4961436;28;20417;-78
2024/02/06 04:23:33;;;;;;;16.83;7.93;;;;;;;8.42;67.37;97491.94;4958935;28;20616;-78
2024/02/06 04:25:59;;;;;;;14.48;6.78;;;;;;;8.56;67.41;97495.16;4971213;28;20062;-78
2024/02/06 04:28:24;;;;;;;14.93;7.20;;;;;;;8.53;66.94;97496.38;4974258;28;20050;-77
2024/02/06 04:30:50;;;;;;;13.38;6.95;;;;;;;8.72;66.63;97497.09;4947050;28;20037;-82
2024/02/06 04:33:15;;;;;;;15.10;7.82;;;;;;;8.55;66.79;97501.34;4940433;28;20041;-83
2024/02/06 04:35:41;;;;;;;13.35;7.60;;;;;;;8.72;66.34;97497.09;4953479;28;20114;-82
2024/02/06 04:38:06;;;;;;;16.05;7.97;;;;;;;8.40;67.02;97494.75;4950651;28;20498;-81
2024/02/06 04:40:32;;;;;;;15.52;7.95;;;;;;;8.66;66.33;97507.59;4943687;28;20088;-80
2024/02/06 04:42:58;;;;;;;14.75;8.85;;;;;;;8.50;67.69;97496.84;4960262;28;20035;-80
2024/02/06 04:45:23;;;;;;;14.43;8.30;;;;;;;8.53;67.79;97488.59;4966543;28;20053;-82
2024/02/06 04:47:48;;;;;;;14.27;7.90;;;;;;;8.76;66.28;97497.44;4969715;28;20058;-81
2024/02/06 04:50:15;;;;;;;13.50;7.55;;;;;;;8.59;67.69;97489.53;4961216;28;20113;-80
2024/02/06 04:52:40;;;;;;;15.23;7.30;;;;;;;8.49;67.34;97468.53;4966745;28;20454;-81
2024/02/06 04:55:06;;;;;;;12.52;6.88;;;;;;;8.57;66.89;97473.38;4936453;28;20046;-81
2024/02/06 04:57:31;;;;;;;12.88;7.97;;;;;;;8.56;67.04;97461.41;4957769;28;20023;-82
2024/02/06 04:59:57;;;;;;;11.75;6.80;;;;;;;8.62;67.10;97465.72;4975085;28;20046;-82
2024/02/06 05:02:23;;;;;;;14.05;7.25;;;;;;;8.65;67.13;97470.44;4951509;28;20058;-81
2024/02/06 05:04:48;;;;;;;15.30;7.35;;;;;;;8.55;67.07;97459.81;4962337;28;20023;-81
2024/02/06 05:07:14;;;;;;;16.30;6.68;;;;;;;8.43;68.11;97459.78;4953427;28;20041;-82
2024/02/06 05:09:39;;;;;;;12.13;7.03;;;;;;;8.28;68.35;97457.63;4962349;28;20796;-80
2024/02/06 05:12:06;;;;;;;13.85;7.30;;;;;;;8.44;68.29;97456.97;4958033;28;20126;-80
2024/02/06 05:14:32;;;;;;;16.50;7.15;;;;;;;8.19;68.55;97457.16;4967261;28;20235;-84
2024/02/06 05:16:58;;;;;;;14.75;7.10;;;;;;;8.23;68.68;97460.88;4954673;28;20101;-81
2024/02/06 05:19:23;;;;;;;15.52;7.65;;;;;;;8.37;68.28;97453.69;4945386;28;20773;-82
2024/02/06 05:21:49;;;;;;;13.43;7.47;;;;;;;8.23;68.58;97444.53;4961403;28;20031;-82
2024/02/06 05:24:14;;;;;;;14.10;7.63;;;;;;;8.46;68.28;97443.00;4933879;28;20088;-84
2024/02/06 05:26:40;;;;;;;14.80;8.05;;;;;;;8.39;68.52;97451.63;4935410;28;20103;-81
2024/02/06 05:29:06;;;;;;;14.13;7.93;;;;;;;8.37;68.67;97451.09;4967320;28;20485;-84
2024/02/06 05:31:32;;;;;;;17.05;8.98;;;;;;;8.47;67.97;97454.97;4954218;28;20447;-83
2024/02/06 05:33:58;;;;;;;18.65;8.82;;;;;;;8.42;68.73;97459.00;4971625;28;20034;-81
2024/02/06 05:36:24;;;;;;;15.60;8.38;;;;;;;8.31;68.99;97449.41;4975851;28;20042;-82
2024/02/06 05:38:49;;;;;;;17.58;8.52;;;;;;;8.52;68.24;97445.50;4962937;28;20549;-81
2024/02/06 05:41:15;;;;;;;15.90;8.55;;;;;;;8.62;67.68;97442.34;4961140;28;20042;-80
2024/02/06 05:43:40;;;;;;;14.38;7.57;;;;;;;8.18;69.02;97444.41;4967573;28;20033;-82
2024/02/06 05:46:06;;;;;;;15.32;7.75;;;;;;;8.23;69.12;97445.31;4933971;28;20038;-82
2024/02/06 05:48:31;;;;;;;15.55;7.38;;;;;;;8.25;67.99;97447.69;4952270;28;20034;-80
2024/02/06 05:50:56;;;;;;;13.93;7.40;;;;;;;8.41;68.77;97449.63;4953235;28;20068;-82
2024/02/06 05:53:22;;;;;;;12.85;6.88;;;;;;;8.41;68.46;97452.22;4950923;28;20498;-81
2024/02/06 05:55:47;;;;;;;14.27;7.90;;;;;;;8.17;68.51;97448.78;4949436;28;20035;-81
2024/02/06 05:58:12;;;;;;;13.60;6.82;;;;;;;8.21;68.96;97446.56;4958229;28;20033;-82
2024/02/06 06:00:38;;;;;;;10.20;6.15;;;;;;;8.35;69.07;97444.56;4956968;28;20065;-81
2024/02/06 06:03:04;;;;;;;13.32;6.72;;;;;;;8.32;68.60;97435.38;4981181;28;20047;-82
2024/02/06 06:05:30;;;;;;;13.48;6.35;;;;;;;8.45;68.39;97434.44;4960532;28;20521;-82
2024/02/06 06:07:55;;;;;;;11.57;6.10;;;;;;;8.38;68.10;97433.69;4958655;28;20038;-82
2024/02/06 06:10:20;;;;;;;11.80;6.55;;;;;;;8.34;69.07;97438.53;4984146;28;20031;-80
2024/02/06 06:12:46;;;;;;;11.93;6.35;;;;;;;8.46;67.97;97424.84;4978287;28;20118;-82
2024/02/06 06:15:11;;;;;;;13.88;7.30;;;;;;;8.42;68.13;97417.50;4960629;28;20544;-82
2024/02/06 06:17:37;;;;;;;13.93;7.05;;;;;;;8.55;67.31;97410.50;4969715;28;20547;-81
2024/02/06 06:20:03;;;;;;;14.13;6.55;;;;;;;8.65;66.72;97418.53;4967108;28;20045;-81
2024/02/06 06:22:28;;;;;;;12.65;6.68;;;;;;;8.69;67.30;97417.06;4960492;28;20474;-83
2024/02/06 06:24:54;;;;;;;14.85;7.13;;;;;;;8.71;67.18;97411.66;4957896;28;20121;-81
2024/02/06 06:27:19;;;;;;;12.10;7.45;;;;;;;8.50;67.88;97407.81;4967181;28;20083;-81
2024/02/06 06:29:46;;;;;;;12.15;6.35;;;;;;;8.57;67.83;97421.47;4962962;28;20133;-84
2024/02/06 06:32:12;;;;;;;11.40;7.15;;;;;;;8.38;68.13;97415.53;4948687;28;20126;-82
2024/02/06 06:34:41;;;;;;;11.07;6.68;;;;;;;8.39;68.92;97410.13;4962718;28;20031;-81
2024/02/06 06:37:06;;;;;;;15.15;8.52;;;;;;;8.47;67.70;97408.28;5042285;28;20119;-81
2024/02/06 06:39:32;;;;;;;18.73;7.93;;;;;;;8.64;67.80;97411.78;4966344;28;20502;-79
2024/02/06 06:41:58;;;;;;;16.33;8.02;;;;;;;8.56;67.39;97409.50;4963537;28;20058;-81
2024/02/06 06:44:23;;;;;;;17.42;7.95;;;;;;;8.64;67.34;97416.97;4965161;28;20043;-82
2024/02/06 06:46:50;;;;;;;15.43;7.95;;;;;;;8.54;67.91;97416.72;4948827;28;20042;-81
2024/02/06 06:49:15;;;;;;;12.95;7.43;;;;;;;8.56;67.94;97417.28;4946868;28;20031;-81
2024/02/06 06:51:42;;;;;;;13.13;7.43;;;;;;;8.62;67.07;97416.41;4958667;28;20043;-83
2024/02/06 06:54:08;;;;;;;19.13;7.43;;;;;;;8.51;67.49;97414.59;4956927;28;20030;-81
2024/02/06 06:56:33;;;;;;;15.32;7.30;;;;;;;8.38;67.75;97403.38;4978332;28;20045;-80
2024/02/06 06:58:58;;;;;;;14.20;7.78;;;;;;;8.51;67.28;97415.38;4944021;28;20131;-81
2024/02/06 07:01:24;;;;;;;12.93;6.95;;;;;;;8.24;68.46;97408.00;4951968;28;20045;-82
2024/02/06 07:03:50;;;;;;;12.70;6.80;;;;;;;8.56;67.16;97410.28;4958673;28;21823;-81
2024/02/06 07:06:16;;;;;;;13.23;6.95;;;;;;;8.51;67.96;97412.78;4954919;28;20054;-81
2024/02/06 07:08:41;;;;;;;13.30;7.38;;;;;;;8.16;69.21;97400.53;4955432;28;20283;-81
2024/02/06 07:11:06;;;;;;;15.00;6.85;;;;;;;8.23;69.13;97401.22;4948089;28;20031;-81
2024/02/06 07:13:32;;;;;;;12.55;6.35;;;;;;;8.40;68.29;97403.94;4965977;28;20034;-79
2024/02/06 07:15:57;;;;;;;12.02;6.25;;;;;;;8.34;68.52;97402.22;4953062;28;20035;-81
2024/02/06 07:18:22;;;;;;;12.27;6.45;;;;;;;8.27;68.64;97409.31;4942869;28;20062;-80
2024/02/06 07:20:49;;;;;;;11.57;6.70;;;;;;;8.16;68.51;97408.31;4961073;28;20537;-81
2024/02/06 07:23:14;;;;;;;12.38;6.05;;;;;;;8.48;68.30;97412.44;4984350;28;20375;-82
2024/02/06 07:25:40;;;;;;;13.57;5.70;;;;;;;8.55;67.29;97413.09;4965657;28;20469;-83
2024/02/06 07:28:05;;;;;;;11.45;6.35;;;;;;;8.70;67.15;97415.25;4970821;28;20077;-82
2024/02/06 07:30:31;;;;;;;10.73;5.50;;;;;;;8.67;67.16;97424.31;4976871;28;20440;-81
2024/02/06 07:32:56;;;;;;;8.82;5.40;;;;;;;8.37;68.04;97412.16;4967231;28;20118;-85
2024/02/06 07:35:22;;;;;;;9.70;5.75;;;;;;;8.60;67.26;97415.81;4965047;28;20445;-82
2024/02/06 07:37:47;;;;;;;10.52;5.30;;;;;;;8.62;67.78;97419.00;4973201;28;20094;-82
2024/02/06 07:40:12;;;;;;;11.27;5.40;;;;;;;8.63;67.38;97410.19;4970213;28;20031;-83
2024/02/06 07:42:38;;;;;;;11.85;6.07;;;;;;;8.60;67.68;97421.00;4949484;28;20486;-81
2024/02/06 07:45:04;;;;;;;10.00;5.35;;;;;;;8.40;67.73;97432.47;4969336;28;20039;-82
2024/02/06 07:47:30;;;;;;;11.95;5.80;;;;;;;8.44;67.95;97423.25;4959795;28;20410;-83
2024/02/06 07:49:55;;;;;;;9.68;5.30;;;;;;;8.55;67.30;97450.25;4950617;28;20043;-82
2024/02/06 07:52:21;;;;;;;9.57;5.55;;;;;;;8.40;68.45;97435.06;4947489;28;20031;-83
2024/02/06 07:54:47;;;;;;;11.07;5.15;;;;;;;8.21;69.33;97438.78;4958390;28;20088;-83
2024/02/06 07:57:12;;;;;;;9.75;5.35;;;;;;;8.29;68.37;97443.63;4978256;28;20030;-81
2024/02/06 07:59:38;;;;;;;7.38;4.63;;;;;;;8.53;67.97;97435.91;4943567;28;20766;-81
2024/02/06 08:02:03;;;;;;;10.77;5.30;;;;;;;8.55;67.52;97439.06;4971635;28;20043;-82
2024/02/06 08:04:29;;;;;;;10.65;5.38;;;;;;;8.24;69.03;97422.75;4959917;28;20042;-82
2024/02/06 08:06:54;;;;;;;8.75;5.20;;;;;;;8.41;68.64;97428.88;4944211;28;20504;-84
2024/02/06 08:09:20;;;;;;;10.25;4.65;;;;;;;8.44;68.33;97425.84;4961096;28;20153;-81
2024/02/06 08:11:46;;;;;;;9.70;5.38;;;;;;;8.72;66.98;97437.41;4967463;28;20062;-83
2024/02/06 08:14:12;;;;;;;8.32;5.10;;;;;;;8.66;67.45;97433.09;4963135;28;20083;-82
2024/02/06 08:16:42;;;;;;;9.55;5.43;;;;;;;8.47;67.56;97431.63;4962830;28;20030;-83
2024/02/06 08:19:08;;;;;;;11.65;5.40;;;;;;;8.16;68.74;97433.47;4963625;28;20115;-83
2024/02/06 08:21:34;;;;;;;7.88;4.53;;;;;;;8.52;67.63;97439.53;4951098;28;20125;-83
2024/02/06 08:23:59;;;;;;;8.57;5.15;;;;;;;8.39;68.16;97446.44;4966526;28;20035;-81
2024/02/06 08:26:24;;;;;;;8.32;4.82;;;;;;;8.77;67.15;97441.91;4966964;28;20042;-82
2024/02/06 08:28:50;;;;;;;7.78;4.53;;;;;;;8.51;66.98;97443.13;4968001;28;20031;-81
2024/02/06 08:31:16;;;;;;;9.65;4.90;;;;;;;8.60;67.57;97436.56;4969552;28;20046;-81
2024/02/06 08:33:44;;;;;;;9.02;5.53;;;;;;;8.39;69.11;97435.28;4962978;28;20046;-81
2024/02/06 08:36:13;;;;;;;8.85;5.30;;;;;;;8.52;68.91;97424.75;4961021;28;20820;-81
2024/02/06 08:38:38;;;;;;;9.18;5.25;;;;;;;8.46;68.39;97427.44;4964599;28;20172;-81
2024/02/06 08:41:04;;;;;;;9.00;5.03;;;;;;;8.75;67.31;97441.34;4966179;28;20113;-83
2024/02/06 08:43:31;;;;;;;8.88;5.00;;;;;;;8.66;66.93;97440.09;4969675;28;20474;-83
2024/02/06 08:45:57;;;;;;;8.27;4.97;;;;;;;8.43;67.75;97439.84;4977818;28;20076;-83
2024/02/06 08:48:22;;;;;;;7.88;4.20;;;;;;;8.67;67.48;97445.06;4981465;28;20066;-82
2024/02/06 08:50:49;;;;;;;7.55;4.32;;;;;;;8.77;66.70;97445.31;4950285;28;20089;-82
2024/02/06 08:53:16;;;;;;;7.53;4.35;;;;;;;8.41;68.26;97435.84;4965086;28;20118;-82
2024/02/06 08:55:42;;;;;;;8.57;4.57;;;;;;;8.73;67.49;97440.78;4965704;28;20050;-81
2024/02/06 08:58:08;;;;;;;8.02;3.60;;;;;;;8.92;66.58;97426.66;4967345;28;20425;-82
2024/02/06 09:00:33;;;;;;;9.70;4.38;;;;;;;8.56;67.21;97430.28;4957481;28;20096;-82
2024/02/06 09:02:59;;;;;;;7.35;3.70;;;;;;;8.44;68.59;97419.88;4957935;28;20091;-82
2024/02/06 09:05:24;;;;;;;6.13;3.60;;;;;;;8.60;68.17;97436.56;4950624;28;20047;-82
2024/02/06 09:07:49;;;;;;;6.50;4.07;;;;;;;8.61;67.55;97427.78;4953286;28;20083;-81
2024/02/06 09:10:15;;;;;;;5.28;3.72;;;;;;;8.71;66.99;97435.81;4938445;28;20039;-83
2024/02/06 09:12:40;;;;;;;5.18;3.50;;;;;;;8.67;67.95;97432.09;4980759;28;20432;-83
2024/02/06 09:15:06;;;;;;;5.80;3.33;;;;;;;8.47;67.33;97423.84;4962000;28;20526;-77
2024/02/06 09:17:32;;;;;;;7.38;3.90;;;;;;;8.80;66.74;97429.25;4953153;28;20486;-78
2024/02/06 09:19:57;;;;;;;7.15;3.38;;;;;;;8.83;67.40;97430.63;4976592;28;20048;-78
2024/02/06 09:22:22;;;;;;;7.97;3.67;;;;;;;9.00;66.92;97426.31;4965097;28;20031;-76
2024/02/06 09:24:48;;;;;;;7.55;3.95;;;;;;;8.96;66.21;97429.59;4942651;28;20045;-78
2024/02/06 09:27:13;;;;;;;7.00;3.13;;;;;;;9.08;66.53;97421.78;4949180;28;20057;-78
2024/02/06 09:29:39;;;;;;;6.03;3.65;;;;;;;9.05;66.91;97412.66;4950048;28;20038;-78
2024/02/06 09:32:04;;;;;;;7.25;3.70;;;;;;;8.72;67.19;97413.22;4949304;28;20035;-78
2024/02/06 09:34:29;;;;;;;5.82;3.50;;;;;;;8.93;66.38;97414.47;4934648;28;20023;-78
2024/02/06 09:36:55;;;;;;;6.38;3.60;;;;;;;8.75;67.09;97410.97;4961194;28;20065;-78
2024/02/06 09:39:20;;;;;;;8.30;4.07;;;;;;;8.81;66.96;97428.25;4958850;28;20045;-78
2024/02/06 09:41:46;;;;;;;8.43;3.45;;;;;;;8.95;66.54;97412.44;4964847;28;20197;-77
2024/02/06 09:44:13;;;;;;;6.20;2.92;;;;;;;9.03;65.77;97409.50;4966730;28;20088;-77
2024/02/06 09:46:38;;;;;;;9.23;4.43;;;;;;;8.91;66.94;97429.47;5018347;28;20360;-77
2024/02/06 09:49:04;;;;;;;6.88;3.63;;;;;;;9.04;66.68;97431.06;4937440;28;20034;-78
2024/02/06 09:51:37;;;;;;;7.82;3.53;;;;;;;8.68;67.53;97427.69;4951119;28;20030;-77
2024/02/06 09:54:04;;;;;;;6.60;3.20;;;;;;;8.89;66.93;97436.69;4933775;28;20035;-78
2024/02/06 09:56:31;;;;;;;5.03;3.25;;;;;;;8.96;66.26;97437.38;4964986;28;20030;-78
2024/02/06 09:58:57;;;;;;;6.32;3.22;;;;;;;9.07;65.81;97434.00;4965451;28;20479;-78
2024/02/06 10:01:23;;;;;;;5.18;3.30;;;;;;;8.97;66.26;97437.16;4967854;28;20042;-77
2024/02/06 10:03:52;;;;;;;6.75;3.15;;;;;;;9.19;66.00;97444.38;4959467;28;20039;-77
2024/02/06 10:06:23;;;;;;;6.32;3.58;;;;;;;8.98;66.31;97443.16;4968889;28;20434;-77
2024/02/06 10:08:49;;;;;;;6.43;3.20;;;;;;;8.98;65.97;97443.16;4977693;28;20066;-77
2024/02/06 10:11:17;;;;;;;5.43;3.55;;;;;;;9.28;65.63;97435.19;4963459;28;20080;-78
2024/02/06 10:13:43;;;;;;;5.63;3.42;;;;;;;8.83;67.51;97433.22;4951281;28;20045;-79
2024/02/06 10:16:08;;;;;;;8.05;3.17;;;;;;;9.04;66.70;97436.25;4948872;28;20035;-78
2024/02/06 10:18:33;;;;;;;6.10;2.80;;;;;;;9.17;65.48;97420.44;4938510;28;20027;-77
2024/02/06 10:20:59;;;;;;;5.53;3.45;;;;;;;9.34;65.29;97433.50;5022230;28;20079;-79
2024/02/06 10:23:24;;;;;;;9.23;4.15;;;;;;;9.19;66.35;97426.97;4933540;28;20522;-82
2024/02/06 10:25:50;;;;;;;5.32;3.17;;;;;;;9.43;65.98;97439.13;4977363;28;20172;-81
2024/02/06 10:28:23;;;;;;;5.30;3.83;;;;;;;9.37;66.24;97431.22;4976637;28;20498;-82
2024/02/06 10:30:49;;;;;;;6.07;3.45;;;;;;;9.35;66.06;97416.88;4941516;28;20030;-82
2024/02/06 10:33:15;;;;;;;7.53;4.30;;;;;;;9.17;65.83;97421.22;4973844;28;20116;-80
2024/02/06 10:35:41;;;;;;;5.03;2.90;;;;;;;9.07;65.82;97434.00;4954755;28;20043;-83
2024/02/06 10:38:13;;;;;;;7.82;3.10;;;;;;;9.47;65.57;97432.44;4966737;28;20038;-83
2024/02/06 10:40:45;;;;;;;5.82;3.00;;;;;;;9.34;65.70;97423.09;4953972;28;20350;-82
2024/02/06 10:43:11;;;;;;;6.85;3.40;;;;;;;9.13;65.65;97427.91;4972500;28;20406;-83
2024/02/06 10:45:37;;;;;;;7.00;3.28;;;;;;;9.40;65.02;97435.16;4961525;28;20031;-81
2024/02/06 10:48:04;;;;;;;5.22;3.25;;;;;;;9.71;64.75;97430.56;4965875;28;20482;-81
2024/02/06 10:50:30;;;;;;;5.57;3.05;;;;;;;9.67;64.62;97424.25;4949429;28;20088;-81
2024/02/06 10:52:56;;;;;;;4.68;3.35;;;;;;;9.62;64.76;97416.34;4947720;28;20058;-82
2024/02/06 10:55:22;;;;;;;5.65;3.17;;;;;;;9.70;64.24;97421.19;4966374;28;20066;-81
2024/02/06 10:57:48;;;;;;;5.35;3.13;;;;;;;9.75;64.74;97409.06;4964466;28;20031;-82
2024/02/06 11:00:15;;;;;;;7.70;3.60;;;;;;;9.44;65.79;97419.91;4954010;28;20038;-82
2024/02/06 11:02:43;;;;;;;8.93;3.60;;;;;;;9.44;65.39;97410.31;4953990;28;20087;-82
2024/02/06 11:05:14;;;;;;;4.75;3.83;;;;;;;9.47;65.34;97406.44;4956854;28;20039;-82
2024/02/06 11:07:52;;;;;;;5.38;2.97;;;;;;;9.55;64.97;97399.06;4966923;28;20030;-81
2024/02/06 11:10:22;;;;;;;5.35;3.25;;;;;;;9.30;66.31;97411.56;4960790;28;20088;-80
2024/02/06 11:12:48;;;;;;;5.57;3.60;;;;;;;9.64;65.08;97396.88;4963262;28;20569;-82
2024/02/06 11:15:15;;;;;;;4.30;3.00;;;;;;;9.71;64.51;97391.56;4954917;28;20042;-82
2024/02/06 11:17:42;;;;;;;5.90;3.17;;;;;;;9.81;64.64;97396.94;4957249;28;20083;-81
2024/02/06 11:20:13;;;;;;;6.63;3.47;;;;;;;9.56;65.20;97394.66;4967679;28;20483;-82
2024/02/06 11:22:44;;;;;;;4.88;2.85;;;;;;;9.48;64.75;97385.44;4962010;28;20076;-80
2024/02/06 11:25:12;;;;;;;4.22;3.03;;;;;;;9.65;64.44;97389.91;4954301;28;20446;-83
2024/02/06 11:27:39;;;;;;;6.82;3.60;;;;;;;9.81;64.29;97388.34;4959927;28;20031;-82
2024/02/06 11:30:06;;;;;;;5.32;3.20;;;;;;;9.91;64.09;97388.53;4968104;28;20035;-84